createdAt,value
2023-04-02T00:02:33.841Z,99511.14
2023-04-02T00:07:41.540Z,99511.85
2023-04-02T00:13:21.911Z,99517.73
2023-04-02T00:18:26.403Z,99520.88
2023-04-02T00:23:29.304Z,99529.84
2023-04-02T00:28:32.086Z,99537.73
2023-04-02T00:33:35.472Z,99544.94
2023-04-02T00:38:43.739Z,99547.86
2023-04-02T00:43:50.765Z,99553.02
2023-04-02T00:49:10.708Z,99554.05
2023-04-02T00:54:15.941Z,99556.11
2023-04-02T00:59:54.689Z,99568.48
2023-04-02T01:05:03.576Z,99569.85
2023-04-02T01:10:12.559Z,99579.30
2023-04-02T01:15:25.619Z,99584.11
2023-04-02T01:20:54.101Z,99585.31
2023-04-02T01:25:59.962Z,99590.45
2023-04-02T01:31:03.914Z,99596.13
2023-04-02T01:36:35.162Z,99599.57
2023-04-02T01:41:53.124Z,99601.97
2023-04-02T01:46:58.888Z,99607.47
2023-04-02T01:52:01.871Z,99610.39
2023-04-02T01:57:05.491Z,99618.45
2023-04-02T02:02:13.521Z,99626.02
2023-04-02T02:07:20.605Z,99629.45
2023-04-02T02:12:23.448Z,99632.17
2023-04-02T02:17:34.567Z,99640.23
2023-04-02T02:22:39.656Z,99647.11
2023-04-02T02:27:46.038Z,99650.20
2023-04-02T02:33:26.222Z,99653.49
2023-04-02T02:38:36.358Z,99658.83
2023-04-02T02:43:42.126Z,99662.44
2023-04-02T02:48:46.943Z,99663.64
2023-04-02T02:53:54.127Z,99669.14
2023-04-02T02:58:57.077Z,99674.80
2023-04-02T03:04:00.862Z,99679.61
2023-04-02T03:09:13.479Z,99686.99
2023-04-02T03:14:49.255Z,99693.70
2023-04-02T03:20:06.553Z,99700.55
2023-04-02T03:25:32.154Z,99708.97
2023-04-02T03:30:47.157Z,99720.48
2023-04-02T03:35:58.224Z,99731.11
2023-04-02T03:41:06.658Z,99731.45
2023-04-02T03:46:24.834Z,99742.77
2023-04-02T03:51:32.566Z,99755.45
2023-04-02T03:56:40.482Z,99757.16
2023-04-02T04:02:06.353Z,99764.20
2023-04-02T04:07:31.182Z,99769.48
2023-04-02T04:12:37.015Z,99777.51
2023-04-02T04:18:03.409Z,99786.91
2023-04-02T04:23:15.992Z,99793.77
2023-04-02T04:28:44.152Z,99795.33
2023-04-02T04:33:54.903Z,99801.52
2023-04-02T04:39:05.711Z,99809.29
2023-04-02T04:44:19.112Z,99816.15
2023-04-02T04:49:43.447Z,99825.27
2023-04-02T04:54:47.142Z,99836.77
2023-04-02T05:00:07.376Z,99841.25
2023-04-02T05:05:25.284Z,99854.16
2023-04-02T05:10:45.186Z,99858.97
2023-04-02T05:16:11.338Z,99862.76
2023-04-02T05:21:21.779Z,99869.14
2023-04-02T05:26:31.010Z,99878.09
2023-04-02T05:31:56.061Z,99884.46
2023-04-02T05:36:59.151Z,99886.71
2023-04-02T05:42:08.412Z,99889.64
2023-04-02T05:47:21.275Z,99896.88
2023-04-02T05:52:30.229Z,99904.79
2023-04-02T05:57:46.915Z,99910.48
2023-04-02T06:03:01.074Z,99919.44
2023-04-02T06:08:11.261Z,99924.27
2023-04-02T06:13:18.724Z,99925.64
2023-04-02T06:18:27.780Z,99932.85
2023-04-02T06:24:05.558Z,99939.89
2023-04-02T06:29:24.202Z,99947.62
2023-04-02T06:34:29.859Z,99956.91
2023-04-02T06:39:32.642Z,99960.35
2023-04-02T06:44:37.650Z,99966.53
2023-04-02T06:49:47.168Z,99973.94
2023-04-02T06:54:50.084Z,99978.77
2023-04-02T06:59:53.329Z,99982.55
2023-04-02T07:05:04.659Z,99990.97
2023-04-02T07:10:09.368Z,99995.61
2023-04-02T07:15:19.939Z,100007.48
2023-04-02T07:20:34.006Z,100019.69
2023-04-02T07:25:37.064Z,100024.02
2023-04-02T07:30:41.979Z,100027.98
2023-04-02T07:35:46.252Z,100033.69
2023-04-02T07:40:49.408Z,100042.29
2023-04-02T07:45:52.257Z,100046.09
2023-04-02T07:50:55.086Z,100051.44
2023-04-02T07:56:01.548Z,100055.59
2023-04-02T08:01:05.462Z,100062.66
2023-04-02T08:06:08.569Z,100068.03
2023-04-02T08:11:11.881Z,100074.09
2023-04-02T08:16:14.845Z,100087.70
2023-04-02T08:21:17.844Z,100092.73
2023-04-02T08:26:21.182Z,100102.90
2023-04-02T08:31:24.569Z,100110.48
2023-04-02T08:36:31.110Z,100116.52
2023-04-02T08:41:44.376Z,100118.77
2023-04-02T08:47:14.504Z,100124.30
2023-04-02T08:52:24.116Z,100131.38
2023-04-02T08:57:36.870Z,100134.29
2023-04-02T09:02:44.555Z,100141.84
2023-04-02T09:07:50.861Z,100151.46
2023-04-02T09:12:53.805Z,100157.48
2023-04-02T09:18:17.738Z,100164.71
2023-04-02T09:23:23.882Z,100172.81
2023-04-02T09:28:27.719Z,100186.46
2023-04-02T09:33:51.620Z,100193.89
2023-04-02T09:39:06.874Z,100202.01
2023-04-02T09:44:23.755Z,100210.29
2023-04-02T09:49:28.737Z,100215.80
2023-04-02T09:54:33.684Z,100225.45
2023-04-02T09:59:37.568Z,100232.88
2023-04-02T10:04:47.982Z,100239.10
2023-04-02T10:10:01.990Z,100248.59
2023-04-02T10:15:06.851Z,100248.27
2023-04-02T10:20:23.046Z,100259.69
2023-04-02T10:25:32.439Z,100265.40
2023-04-02T10:30:58.428Z,100263.88
2023-04-02T10:36:16.400Z,100271.98
2023-04-02T10:41:40.063Z,100275.42
2023-04-02T10:47:00.767Z,100277.95
2023-04-02T10:52:32.169Z,100284.78
2023-04-02T10:57:39.659Z,100289.39
2023-04-02T11:03:02.852Z,100296.27
2023-04-02T11:08:29.709Z,100310.04
2023-04-02T11:13:42.389Z,100317.45
2023-04-02T11:19:19.918Z,100323.27
2023-04-02T11:24:43.767Z,100331.86
2023-04-02T11:29:53.682Z,100330.13
2023-04-02T11:35:06.639Z,100345.83
2023-04-02T11:40:13.999Z,100362.27
2023-04-02T11:45:28.795Z,100368.02
2023-04-02T11:50:34.538Z,100376.29
2023-04-02T11:55:40.668Z,100385.98
2023-04-02T12:01:05.393Z,100387.37
2023-04-02T12:06:14.424Z,100405.01
2023-04-02T12:11:35.161Z,100415.55
2023-04-02T12:16:38.343Z,100424.92
2023-04-02T12:21:47.958Z,100433.71
2023-04-02T12:27:16.866Z,100448.70
2023-04-02T12:32:31.198Z,100451.68
2023-04-02T12:37:34.244Z,100452.89
2023-04-02T12:42:39.271Z,100444.83
2023-04-02T12:47:45.458Z,100464.14
2023-04-02T12:52:51.942Z,100465.11
2023-04-02T12:57:59.261Z,100479.92
2023-04-02T13:03:16.979Z,100494.84
2023-04-02T13:08:27.425Z,100506.84
2023-04-02T13:13:39.446Z,100512.44
2023-04-02T13:18:47.695Z,100521.67
2023-04-02T13:23:51.058Z,100523.77
2023-04-02T13:29:01.552Z,100538.14
2023-04-02T13:34:04.396Z,100547.67
2023-04-02T13:39:07.512Z,100558.55
2023-04-02T13:44:19.561Z,100555.43
2023-04-02T13:49:24.265Z,100564.95
2023-04-02T13:54:48.951Z,100571.16
2023-04-02T13:59:55.205Z,100578.05
2023-04-02T14:05:13.535Z,100581.14
2023-04-02T14:10:30.208Z,100584.80
2023-04-02T14:16:24.940Z,100590.87
2023-04-02T14:21:55.107Z,100594.36
2023-04-02T14:27:23.790Z,100611.67
2023-04-02T14:32:50.679Z,100607.53
2023-04-02T14:38:21.098Z,100618.27
2023-04-02T14:43:33.034Z,100628.33
2023-04-02T14:48:59.202Z,100628.86
2023-04-02T14:54:09.572Z,100635.77
2023-04-02T14:59:22.022Z,100649.09
2023-04-02T15:04:37.357Z,100649.27
2023-04-02T15:09:49.203Z,100658.27
2023-04-02T15:15:39.965Z,100659.80
2023-04-02T15:20:54.182Z,100673.80
2023-04-02T15:26:05.980Z,100681.77
2023-04-02T15:31:13.602Z,100689.38
2023-04-02T15:36:22.324Z,100700.63
2023-04-02T15:41:38.170Z,100709.63
2023-04-02T15:46:49.301Z,100714.83
2023-04-02T15:52:16.533Z,100724.69
2023-04-02T15:57:47.200Z,100740.64
2023-04-02T16:03:29.525Z,100758.42
2023-04-02T16:08:44.263Z,100763.73
2023-04-02T16:13:47.601Z,100769.59
2023-04-02T16:19:16.150Z,100771.13
2023-04-02T16:24:20.011Z,100785.67
2023-04-02T16:29:25.525Z,100791.20
2023-04-02T16:34:37.123Z,100807.56
2023-04-02T16:40:18.512Z,100830.32
2023-04-02T16:45:50.000Z,100835.44
2023-04-02T16:51:24.291Z,100849.72
2023-04-02T16:56:40.775Z,100862.39
2023-04-02T17:02:02.344Z,100883.17
2023-04-02T17:07:38.098Z,100883.10
2023-04-02T17:12:53.043Z,100882.45
2023-04-02T17:18:00.646Z,100889.21
2023-04-02T17:23:05.692Z,100891.68
2023-04-02T17:28:18.747Z,100894.16
2023-04-02T17:33:25.105Z,100899.02
2023-04-02T17:39:06.951Z,100891.57
2023-04-02T17:44:32.568Z,100893.75
2023-04-02T17:49:56.824Z,100899.74
2023-04-02T17:55:32.333Z,100905.41
2023-04-02T18:00:47.403Z,100910.27
2023-04-02T18:06:08.923Z,100910.63
2023-04-02T18:11:30.949Z,100921.64
2023-04-02T18:16:34.037Z,100923.89
2023-04-02T18:22:02.966Z,100928.93
2023-04-02T18:27:32.380Z,100937.61
2023-04-02T18:32:59.570Z,100937.93
2023-04-02T18:38:33.076Z,100941.52
2023-04-02T18:44:07.692Z,100944.28
2023-04-02T18:49:19.852Z,100954.80
2023-04-02T18:54:30.064Z,100957.60
2023-04-02T18:59:42.610Z,100959.82
2023-04-02T19:04:53.237Z,100963.80
2023-04-02T19:10:07.447Z,100970.71
2023-04-02T19:15:18.967Z,100975.36
2023-04-02T19:20:36.696Z,100974.00
2023-04-02T19:25:42.728Z,100978.86
2023-04-02T19:31:11.854Z,100984.92
2023-04-02T19:36:45.467Z,100989.95
2023-04-02T19:42:03.366Z,100996.34
2023-04-02T19:47:06.191Z,101001.33
2023-04-02T19:52:08.984Z,101002.42
2023-04-02T19:57:16.569Z,101002.83
2023-04-02T20:02:19.345Z,101005.44
2023-04-02T20:07:22.390Z,101016.65
2023-04-02T20:12:25.809Z,101022.52
2023-04-02T20:17:29.437Z,101023.11
2023-04-02T20:22:32.265Z,101030.91
2023-04-02T20:27:35.524Z,101039.89
2023-04-02T20:32:38.457Z,101040.98
2023-04-02T20:37:42.414Z,101048.48
2023-04-02T20:42:45.416Z,101048.72
2023-04-02T20:47:48.273Z,101058.02
2023-04-02T20:52:51.910Z,101064.27
2023-04-02T20:57:55.040Z,101068.63
2023-04-02T21:03:01.441Z,101068.00
2023-04-02T21:08:04.621Z,101074.94
2023-04-02T21:13:07.650Z,101078.65
2023-04-02T21:18:10.472Z,101088.20
2023-04-02T21:23:15.495Z,101089.27
2023-04-02T21:28:18.288Z,101099.02
2023-04-02T21:33:21.107Z,101104.70
2023-04-02T21:38:23.980Z,101104.95
2023-04-02T21:43:26.786Z,101107.70
2023-04-02T21:48:30.328Z,101110.25
2023-04-02T21:53:33.646Z,101113.23
2023-04-02T21:58:36.479Z,101114.95
2023-04-02T22:03:39.888Z,101120.30
2023-04-02T22:08:44.222Z,101116.78
2023-04-02T22:13:48.730Z,101122.31
2023-04-02T22:18:53.223Z,101129.18
2023-04-02T22:23:56.550Z,101133.37
2023-04-02T22:29:00.644Z,101140.84
2023-04-02T22:34:05.586Z,101137.94
2023-04-02T22:39:10.534Z,101136.94
2023-04-02T22:44:16.495Z,101147.86
2023-04-02T22:49:19.637Z,101157.52
2023-04-02T22:54:22.554Z,101160.86
2023-04-02T22:59:25.748Z,101161.63
2023-04-02T23:04:28.474Z,101166.64
2023-04-02T23:09:31.430Z,101174.27
2023-04-02T23:14:34.184Z,101174.52
2023-04-02T23:19:37.004Z,101178.40
2023-04-02T23:24:39.729Z,101178.14
2023-04-02T23:29:42.485Z,101179.06
2023-04-02T23:34:45.358Z,101185.29
2023-04-02T23:39:48.141Z,101182.05
2023-04-02T23:44:50.979Z,101186.42
2023-04-02T23:49:53.955Z,101185.20
2023-04-02T23:54:56.715Z,101186.98
2023-04-02T23:59:59.889Z,101197.80
